createdAt,value
2023-03-02T00:00:41.224Z,6.00
2023-03-02T00:01:41.241Z,6.00
2023-03-02T00:02:41.227Z,5.70
2023-03-02T00:03:41.278Z,6.00
2023-03-02T00:04:41.246Z,5.70
2023-03-02T00:05:41.182Z,6.30
2023-03-02T00:06:41.193Z,6.20
2023-03-02T00:07:41.173Z,6.00
2023-03-02T00:08:41.136Z,6.00
2023-03-02T00:09:41.149Z,6.00
2023-03-02T00:10:41.130Z,6.30
2023-03-02T00:11:41.124Z,6.00
2023-03-02T00:12:41.121Z,5.90
2023-03-02T00:13:41.088Z,7.10
2023-03-02T00:14:41.072Z,6.10
2023-03-02T00:15:41.125Z,5.90
2023-03-02T00:16:41.050Z,6.00
2023-03-02T00:17:41.070Z,6.60
2023-03-02T00:18:41.043Z,5.60
2023-03-02T00:19:41.039Z,6.50
2023-03-02T00:20:41.007Z,7.00
2023-03-02T00:21:41.047Z,7.50
2023-03-02T00:22:41.028Z,8.30
2023-03-02T00:23:40.980Z,8.20
2023-03-02T00:24:40.969Z,7.60
2023-03-02T00:25:40.963Z,7.50
2023-03-02T00:26:40.969Z,7.00
2023-03-02T00:27:40.936Z,6.90
2023-03-02T00:28:40.925Z,7.10
2023-03-02T00:29:40.908Z,7.20
2023-03-02T00:30:40.930Z,7.30
2023-03-02T00:31:40.912Z,7.20
2023-03-02T00:32:40.888Z,7.50
2023-03-02T00:33:40.866Z,7.90
2023-03-02T00:34:40.847Z,7.90
2023-03-02T00:35:40.972Z,7.80
2023-03-02T00:36:41.225Z,8.20
2023-03-02T00:37:40.835Z,7.80
2023-03-02T00:38:40.824Z,7.30
2023-03-02T00:39:40.795Z,7.40
2023-03-02T00:40:40.830Z,8.10
2023-03-02T00:41:40.806Z,8.30
2023-03-02T00:42:40.764Z,7.50
2023-03-02T00:43:40.773Z,7.80
2023-03-02T00:44:40.760Z,7.50
2023-03-02T00:45:40.786Z,7.90
2023-03-02T00:46:40.773Z,7.20
2023-03-02T00:47:41.664Z,7.70
2023-03-02T00:48:40.896Z,7.70
2023-03-02T00:49:40.688Z,7.80
2023-03-02T00:50:40.712Z,7.50
2023-03-02T00:51:40.702Z,7.50
2023-03-02T00:52:40.659Z,7.60
2023-03-02T00:53:40.653Z,7.70
2023-03-02T00:54:40.661Z,7.30
2023-03-02T00:55:40.643Z,6.90
2023-03-02T00:56:40.627Z,7.30
2023-03-02T00:57:40.601Z,7.20
2023-03-02T00:58:40.605Z,7.40
2023-03-02T00:59:40.591Z,7.10
2023-03-02T01:00:40.576Z,7.00
2023-03-02T01:01:40.586Z,6.90
2023-03-02T01:02:40.692Z,7.00
2023-03-02T01:03:40.557Z,7.50
2023-03-02T01:04:40.537Z,6.50
2023-03-02T01:05:40.505Z,6.30
2023-03-02T01:06:40.581Z,6.70
2023-03-02T01:07:40.504Z,6.80
2023-03-02T01:08:40.483Z,6.60
2023-03-02T01:09:40.523Z,6.10
2023-03-02T01:10:40.481Z,5.40
2023-03-02T01:11:40.450Z,6.30
2023-03-02T01:12:40.442Z,5.90
2023-03-02T01:13:40.424Z,5.20
2023-03-02T01:14:40.435Z,5.30
2023-03-02T01:15:40.422Z,5.10
2023-03-02T01:16:40.461Z,5.60
2023-03-02T01:17:40.389Z,5.20
2023-03-02T01:18:40.393Z,5.60
2023-03-02T01:19:40.400Z,5.30
2023-03-02T01:20:40.383Z,5.50
2023-03-02T01:21:40.358Z,5.30
2023-03-02T01:22:40.356Z,5.70
2023-03-02T01:23:40.361Z,5.30
2023-03-02T01:24:40.333Z,5.30
2023-03-02T01:25:40.304Z,5.70
2023-03-02T01:26:40.302Z,5.40
2023-03-02T01:27:40.298Z,5.90
2023-03-02T01:28:40.274Z,5.10
2023-03-02T01:29:40.281Z,5.70
2023-03-02T01:30:40.259Z,4.80
2023-03-02T01:31:40.277Z,5.20
2023-03-02T01:32:40.306Z,5.90
2023-03-02T01:33:40.229Z,5.20
2023-03-02T01:34:40.258Z,5.70
2023-03-02T01:35:40.255Z,5.70
2023-03-02T01:36:40.173Z,5.60
2023-03-02T01:37:40.172Z,5.50
2023-03-02T01:38:40.253Z,4.80
2023-03-02T01:39:40.192Z,4.90
2023-03-02T01:40:40.140Z,5.20
2023-03-02T01:41:40.154Z,5.00
2023-03-02T01:42:40.106Z,5.20
2023-03-02T01:43:40.097Z,5.40
2023-03-02T01:44:40.148Z,5.50
2023-03-02T01:45:40.141Z,5.10
2023-03-02T01:46:40.084Z,5.10
2023-03-02T01:47:40.067Z,5.20
2023-03-02T01:48:40.085Z,5.90
2023-03-02T01:49:40.066Z,5.40
2023-03-02T01:50:40.055Z,5.60
2023-03-02T01:51:40.018Z,5.80
2023-03-02T01:52:40.052Z,5.70
2023-03-02T01:53:40.021Z,5.80
2023-03-02T01:54:39.979Z,6.00
2023-03-02T01:55:40.063Z,5.80
2023-03-02T01:56:39.959Z,5.80
2023-03-02T01:57:39.959Z,5.30
2023-03-02T01:58:39.959Z,5.40
2023-03-02T01:59:39.922Z,5.90
2023-03-02T02:00:40.019Z,5.40
2023-03-02T02:01:39.926Z,5.40
2023-03-02T02:02:39.882Z,6.00
2023-03-02T02:03:39.935Z,6.40
2023-03-02T02:04:39.882Z,6.00
2023-03-02T02:05:39.862Z,6.20
2023-03-02T02:06:39.907Z,6.30
2023-03-02T02:07:39.867Z,6.60
2023-03-02T02:08:39.865Z,7.20
2023-03-02T02:09:39.842Z,8.50
2023-03-02T02:10:39.817Z,7.00
2023-03-02T02:11:39.815Z,8.00
2023-03-02T02:12:39.782Z,8.60
2023-03-02T02:13:39.814Z,9.90
2023-03-02T02:14:39.753Z,9.80
2023-03-02T02:15:39.761Z,8.80
2023-03-02T02:16:39.793Z,8.70
2023-03-02T02:17:39.720Z,8.90
2023-03-02T02:18:39.734Z,9.30
2023-03-02T02:19:39.717Z,9.40
2023-03-02T02:20:39.719Z,10.30
2023-03-02T02:21:39.687Z,10.90
2023-03-02T02:22:39.699Z,11.30
2023-03-02T02:23:39.678Z,11.50
2023-03-02T02:24:39.665Z,11.60
2023-03-02T02:25:39.679Z,10.70
2023-03-02T02:26:39.632Z,11.20
2023-03-02T02:27:39.623Z,12.00
2023-03-02T02:28:39.639Z,11.40
2023-03-02T02:29:39.594Z,10.70
2023-03-02T02:30:39.587Z,10.00
2023-03-02T02:31:39.620Z,11.10
2023-03-02T02:32:39.578Z,10.90
2023-03-02T02:33:39.570Z,10.80
2023-03-02T02:34:39.536Z,10.40
2023-03-02T02:35:39.605Z,10.80
2023-03-02T02:36:39.506Z,10.30
2023-03-02T02:37:39.531Z,9.80
2023-03-02T02:38:39.497Z,9.60
2023-03-02T02:39:39.488Z,9.10
2023-03-02T02:40:39.505Z,9.20
2023-03-02T02:41:39.494Z,9.80
2023-03-02T02:42:39.457Z,9.00
2023-03-02T02:43:39.457Z,9.70
2023-03-02T02:44:39.454Z,10.70
2023-03-02T02:45:39.494Z,10.10
2023-03-02T02:46:39.398Z,8.50
2023-03-02T02:47:39.396Z,8.70
2023-03-02T02:48:39.426Z,9.00
2023-03-02T02:49:39.382Z,8.80
2023-03-02T02:50:39.386Z,8.50
2023-03-02T02:51:39.358Z,8.50
2023-03-02T02:52:39.350Z,8.30
2023-03-02T02:53:39.404Z,8.20
2023-03-02T02:54:39.331Z,8.00
2023-03-02T02:55:39.318Z,8.00
2023-03-02T02:56:39.323Z,7.90
2023-03-02T02:57:39.398Z,7.80
2023-03-02T02:58:39.293Z,7.10
2023-03-02T02:59:39.278Z,7.40
2023-03-02T03:00:39.257Z,7.20
2023-03-02T03:01:39.302Z,7.50
2023-03-02T03:02:39.289Z,7.60
2023-03-02T03:03:39.228Z,7.00
2023-03-02T03:04:39.276Z,7.60
2023-03-02T03:05:39.197Z,6.40
2023-03-02T03:06:39.210Z,7.00
2023-03-02T03:07:39.195Z,6.60
2023-03-02T03:08:39.201Z,6.10
2023-03-02T03:09:39.184Z,6.40
2023-03-02T03:10:39.160Z,6.30
2023-03-02T03:11:39.194Z,6.70
2023-03-02T03:12:39.143Z,6.60
2023-03-02T03:13:39.140Z,6.50
2023-03-02T03:14:39.098Z,6.00
2023-03-02T03:15:39.112Z,6.30
2023-03-02T03:16:39.247Z,6.50
2023-03-02T03:17:39.092Z,6.00
2023-03-02T03:18:39.066Z,7.00
2023-03-02T03:19:39.038Z,6.60
2023-03-02T03:20:39.035Z,6.20
2023-03-02T03:21:39.053Z,5.70
2023-03-02T03:22:39.036Z,5.80
2023-03-02T03:23:39.020Z,5.80
2023-03-02T03:24:38.991Z,6.40
2023-03-02T03:25:41.518Z,6.40
2023-03-02T03:26:38.964Z,6.00
2023-03-02T03:27:39.226Z,6.80
2023-03-02T03:28:38.939Z,6.10
2023-03-02T03:29:39.130Z,5.90
2023-03-02T03:30:38.961Z,5.80
2023-03-02T03:31:39.119Z,6.30
2023-03-02T03:32:38.907Z,6.30
2023-03-02T03:33:38.995Z,6.00
2023-03-02T03:34:38.917Z,5.80
2023-03-02T03:35:38.946Z,5.80
2023-03-02T03:36:38.912Z,6.10
2023-03-02T03:37:38.870Z,5.60
2023-03-02T03:38:38.836Z,6.20
2023-03-02T03:39:38.819Z,5.90
2023-03-02T03:40:38.803Z,5.80
2023-03-02T03:41:39.633Z,5.80
2023-03-02T03:42:38.784Z,6.10
2023-03-02T03:43:38.770Z,5.60
2023-03-02T03:44:38.763Z,5.40
2023-03-02T03:45:38.751Z,5.70
2023-03-02T03:46:38.768Z,5.60
2023-03-02T03:47:38.797Z,5.50
2023-03-02T03:48:38.713Z,5.90
2023-03-02T03:49:38.722Z,6.00
2023-03-02T03:50:38.698Z,6.10
2023-03-02T03:51:38.686Z,6.00
2023-03-02T03:52:38.744Z,5.50
2023-03-02T03:53:38.664Z,5.40
2023-03-02T03:54:38.663Z,5.40
2023-03-02T03:55:38.634Z,5.70
2023-03-02T03:56:38.644Z,6.00
2023-03-02T03:57:38.664Z,5.30
2023-03-02T03:58:38.690Z,5.60
2023-03-02T03:59:38.589Z,5.00
2023-03-02T04:00:38.600Z,5.10
2023-03-02T04:01:38.637Z,5.40
2023-03-02T04:02:38.660Z,5.50
2023-03-02T04:03:38.577Z,5.50
2023-03-02T04:04:38.545Z,5.20
2023-03-02T04:05:38.568Z,5.40
2023-03-02T04:06:38.532Z,5.60
2023-03-02T04:07:38.527Z,5.50
2023-03-02T04:08:38.513Z,6.00
2023-03-02T04:09:38.498Z,5.50
2023-03-02T04:10:38.502Z,5.40
2023-03-02T04:11:38.459Z,5.20
2023-03-02T04:12:38.467Z,5.50
2023-03-02T04:13:38.434Z,5.10
2023-03-02T04:14:38.546Z,5.80
2023-03-02T04:15:38.462Z,5.50
2023-03-02T04:16:38.409Z,5.60
2023-03-02T04:17:38.396Z,5.50
2023-03-02T04:18:38.410Z,5.80
2023-03-02T04:19:38.399Z,5.70
2023-03-02T04:20:38.388Z,5.50
2023-03-02T04:21:38.372Z,5.50
2023-03-02T04:22:38.348Z,5.30
2023-03-02T04:23:38.333Z,5.60
2023-03-02T04:24:38.340Z,5.40
2023-03-02T04:25:38.322Z,5.70
2023-03-02T04:26:38.324Z,5.40
2023-03-02T04:27:38.286Z,6.20
2023-03-02T04:28:38.279Z,6.10
2023-03-02T04:29:38.273Z,6.30
2023-03-02T04:30:38.260Z,5.80
2023-03-02T04:31:38.268Z,5.70
2023-03-02T04:32:38.235Z,5.80
2023-03-02T04:33:38.233Z,6.10
2023-03-02T04:34:38.223Z,5.80
2023-03-02T04:35:38.287Z,5.30
2023-03-02T04:36:38.562Z,6.40
2023-03-02T04:37:38.182Z,5.80
2023-03-02T04:38:38.209Z,6.30
2023-03-02T04:39:38.186Z,5.90
2023-03-02T04:40:38.154Z,5.50
2023-03-02T04:41:38.167Z,6.30
2023-03-02T04:42:38.155Z,5.90
2023-03-02T04:43:38.125Z,6.00
2023-03-02T04:44:38.133Z,5.70
2023-03-02T04:45:38.119Z,5.90
2023-03-02T04:46:38.159Z,7.10
2023-03-02T04:47:38.099Z,6.30
2023-03-02T04:48:38.072Z,6.20
2023-03-02T04:49:38.089Z,6.20
2023-03-02T04:50:38.058Z,6.40
2023-03-02T04:51:38.063Z,6.30
2023-03-02T04:52:38.028Z,6.30
2023-03-02T04:53:38.112Z,6.20
2023-03-02T04:54:38.032Z,6.40
2023-03-02T04:55:38.014Z,6.30
2023-03-02T04:56:37.996Z,6.80
2023-03-02T04:57:37.971Z,6.20
2023-03-02T04:58:37.982Z,6.80
2023-03-02T04:59:37.984Z,6.50
2023-03-02T05:00:37.977Z,6.40
2023-03-02T05:01:37.946Z,6.40
2023-03-02T05:02:38.006Z,6.30
2023-03-02T05:03:37.910Z,6.20
2023-03-02T05:04:38.066Z,6.90
2023-03-02T05:05:37.899Z,7.50
2023-03-02T05:06:37.874Z,6.60
2023-03-02T05:07:37.933Z,7.70
2023-03-02T05:08:37.897Z,7.00
2023-03-02T05:09:37.850Z,7.40
2023-03-02T05:10:37.831Z,7.30
2023-03-02T05:11:37.825Z,7.80
2023-03-02T05:12:37.845Z,7.30
2023-03-02T05:13:37.823Z,6.80
2023-03-02T05:14:37.811Z,7.00
2023-03-02T05:15:37.865Z,6.80
2023-03-02T05:16:37.940Z,6.50
2023-03-02T05:17:37.808Z,6.70
2023-03-02T05:18:37.749Z,7.60
2023-03-02T05:19:37.751Z,7.00
2023-03-02T05:20:37.771Z,7.10
2023-03-02T05:21:37.718Z,6.50
2023-03-02T05:22:37.699Z,6.90
2023-03-02T05:23:37.720Z,6.50
2023-03-02T05:24:37.678Z,7.50
2023-03-02T05:25:37.700Z,7.60
2023-03-02T05:26:37.688Z,7.50
2023-03-02T05:27:37.671Z,7.90
2023-03-02T05:28:37.635Z,7.20
2023-03-02T05:29:37.624Z,7.40
2023-03-02T05:30:37.963Z,7.40
2023-03-02T05:31:37.681Z,8.10
2023-03-02T05:32:37.674Z,8.20
2023-03-02T05:33:37.589Z,8.60
2023-03-02T05:34:37.584Z,8.80
2023-03-02T05:35:37.645Z,8.90
2023-03-02T05:36:37.784Z,9.40
2023-03-02T05:37:37.566Z,9.50
2023-03-02T05:38:37.529Z,9.20
2023-03-02T05:39:37.537Z,10.00
2023-03-02T05:40:37.542Z,10.40
2023-03-02T05:41:37.549Z,10.10
2023-03-02T05:42:37.512Z,10.50
2023-03-02T05:43:37.471Z,10.20
2023-03-02T05:44:37.472Z,9.80
2023-03-02T05:45:37.454Z,9.40
2023-03-02T05:46:37.467Z,10.60
2023-03-02T05:47:37.454Z,10.30
2023-03-02T05:48:37.430Z,10.70
2023-03-02T05:49:37.404Z,10.70
2023-03-02T05:50:37.396Z,10.20
2023-03-02T05:51:37.388Z,10.50
2023-03-02T05:52:37.399Z,11.40
2023-03-02T05:53:37.365Z,11.20
2023-03-02T05:54:37.370Z,11.30
2023-03-02T05:55:37.458Z,10.60
2023-03-02T05:56:37.330Z,10.90
2023-03-02T05:57:37.336Z,10.70
2023-03-02T05:58:37.309Z,11.70
2023-03-02T05:59:37.378Z,10.80
2023-03-02T06:00:37.314Z,11.00
2023-03-02T06:01:37.365Z,11.60
2023-03-02T06:02:37.328Z,10.70
2023-03-02T06:03:37.262Z,10.90
2023-03-02T06:04:37.248Z,10.70
2023-03-02T06:05:37.242Z,11.20
2023-03-02T06:06:37.696Z,11.20
2023-03-02T06:07:37.214Z,11.80
2023-03-02T06:08:37.206Z,11.70
2023-03-02T06:09:37.196Z,10.60
2023-03-02T06:10:37.203Z,11.10
2023-03-02T06:11:37.214Z,11.30
2023-03-02T06:12:37.308Z,11.50
2023-03-02T06:13:37.138Z,10.30
2023-03-02T06:14:37.130Z,10.50
2023-03-02T06:15:37.127Z,9.50
2023-03-02T06:16:37.294Z,10.40
2023-03-02T06:17:37.131Z,10.30
2023-03-02T06:18:38.751Z,10.00
2023-03-02T06:19:37.080Z,9.40
2023-03-02T06:20:37.062Z,9.80
2023-03-02T06:21:37.095Z,10.30
2023-03-02T06:22:37.048Z,9.90
2023-03-02T06:23:37.053Z,9.50
2023-03-02T06:24:37.032Z,9.10
2023-03-02T06:25:37.166Z,9.20
2023-03-02T06:26:37.017Z,9.10
2023-03-02T06:27:37.018Z,8.80
2023-03-02T06:28:49.699Z,7.80
2023-03-02T06:29:37.970Z,7.70
2023-03-02T06:30:36.964Z,8.40
2023-03-02T06:31:36.968Z,8.10
2023-03-02T06:32:36.990Z,8.10
2023-03-02T06:33:36.987Z,8.00
2023-03-02T06:34:36.926Z,8.30
2023-03-02T06:35:37.010Z,7.80
2023-03-02T06:36:37.001Z,7.70
2023-03-02T06:37:36.905Z,7.90
2023-03-02T06:38:36.911Z,7.40
2023-03-02T06:39:36.861Z,7.90
2023-03-02T06:40:36.861Z,8.30
2023-03-02T06:41:36.844Z,8.30
2023-03-02T06:42:36.850Z,8.30
2023-03-02T06:43:36.839Z,8.30
2023-03-02T06:44:36.883Z,8.30
2023-03-02T06:45:36.913Z,8.00
2023-03-02T06:46:36.784Z,8.70
2023-03-02T06:47:36.791Z,8.60
2023-03-02T06:48:36.762Z,8.20
2023-03-02T06:49:36.772Z,8.70
2023-03-02T06:50:36.757Z,8.40
2023-03-02T06:51:36.766Z,9.00
2023-03-02T06:52:36.736Z,8.90
2023-03-02T06:53:36.746Z,9.40
2023-03-02T06:54:36.698Z,9.50
2023-03-02T06:55:36.683Z,10.20
2023-03-02T06:56:36.720Z,9.10
2023-03-02T06:57:36.678Z,9.40
2023-03-02T06:58:36.659Z,9.00
2023-03-02T06:59:36.671Z,9.10
2023-03-02T07:00:36.699Z,9.50
2023-03-02T07:01:36.891Z,8.80
2023-03-02T07:02:36.611Z,9.30
2023-03-02T07:03:36.698Z,10.30
2023-03-02T07:04:36.585Z,10.50
2023-03-02T07:05:36.586Z,11.00
2023-03-02T07:06:36.586Z,12.40
2023-03-02T07:07:36.558Z,10.60
2023-03-02T07:08:36.551Z,12.60
2023-03-02T07:09:36.554Z,11.50
2023-03-02T07:10:36.525Z,12.00
2023-03-02T07:11:36.536Z,12.90
2023-03-02T07:12:36.527Z,12.30
2023-03-02T07:13:36.493Z,11.80
2023-03-02T07:14:36.497Z,12.00
2023-03-02T07:15:36.532Z,11.00
2023-03-02T07:16:36.534Z,12.60
2023-03-02T07:17:36.504Z,11.80
2023-03-02T07:18:36.449Z,11.50
2023-03-02T07:19:36.426Z,11.40
2023-03-02T07:20:36.425Z,11.30
2023-03-02T07:21:36.431Z,11.30
2023-03-02T07:22:36.388Z,11.50
2023-03-02T07:23:36.377Z,10.50
2023-03-02T07:24:36.385Z,10.60
2023-03-02T07:25:36.367Z,10.90
2023-03-02T07:26:36.361Z,10.60
2023-03-02T07:27:36.332Z,11.30
2023-03-02T07:28:36.319Z,11.00
2023-03-02T07:29:36.325Z,11.20
2023-03-02T07:30:36.341Z,10.70
2023-03-02T07:31:36.429Z,10.30
2023-03-02T07:32:36.349Z,11.00
2023-03-02T07:33:36.267Z,11.30
2023-03-02T07:34:36.262Z,11.00
2023-03-02T07:35:36.275Z,10.30
2023-03-02T07:36:36.237Z,11.10
2023-03-02T07:37:36.257Z,11.30
2023-03-02T07:38:36.246Z,10.70
2023-03-02T07:39:36.252Z,10.80
2023-03-02T07:40:36.194Z,10.60
2023-03-02T07:41:36.195Z,10.80
2023-03-02T07:42:36.170Z,10.60
2023-03-02T07:43:36.169Z,10.60
2023-03-02T07:44:36.183Z,10.10
2023-03-02T07:45:36.156Z,10.90
2023-03-02T07:46:36.244Z,10.70
2023-03-02T07:47:36.129Z,10.00
2023-03-02T07:48:36.118Z,9.50
2023-03-02T07:49:36.129Z,10.10
2023-03-02T07:50:36.084Z,9.50
2023-03-02T07:51:36.074Z,9.70
2023-03-02T07:52:36.075Z,9.20
2023-03-02T07:53:36.081Z,9.60
2023-03-02T07:54:36.033Z,10.00
2023-03-02T07:55:36.051Z,9.90
2023-03-02T07:56:36.013Z,10.00
2023-03-02T07:57:36.006Z,9.40
2023-03-02T07:58:36.021Z,9.60
2023-03-02T07:59:35.984Z,9.80
2023-03-02T08:00:35.993Z,10.20
2023-03-02T08:01:36.188Z,9.80
2023-03-02T08:02:35.984Z,9.40
2023-03-02T08:03:35.968Z,9.20
2023-03-02T08:04:35.949Z,9.70
2023-03-02T08:05:35.945Z,9.00
2023-03-02T08:06:35.909Z,8.80
2023-03-02T08:07:35.893Z,9.00
2023-03-02T08:08:35.889Z,8.80
2023-03-02T08:09:35.904Z,9.80
2023-03-02T08:10:35.874Z,9.00
2023-03-02T08:11:35.858Z,8.70
2023-03-02T08:12:35.859Z,9.30
2023-03-02T08:13:35.860Z,8.90
2023-03-02T08:14:35.825Z,9.40
2023-03-02T08:15:35.813Z,8.50
2023-03-02T08:16:35.935Z,8.70
2023-03-02T08:17:35.797Z,9.50
2023-03-02T08:18:35.791Z,9.10
2023-03-02T08:19:35.790Z,9.80
2023-03-02T08:20:35.782Z,10.00
2023-03-02T08:21:35.846Z,9.50
2023-03-02T08:22:35.743Z,9.80
2023-03-02T08:23:35.782Z,9.80
2023-03-02T08:24:35.736Z,10.60
2023-03-02T08:25:35.844Z,9.80
2023-03-02T08:26:35.690Z,9.70
2023-03-02T08:27:35.712Z,9.60
2023-03-02T08:28:35.685Z,10.30
2023-03-02T08:29:35.725Z,9.30
2023-03-02T08:30:35.646Z,9.70
2023-03-02T08:31:36.137Z,10.00
2023-03-02T08:32:35.703Z,9.00
2023-03-02T08:33:35.637Z,9.20
2023-03-02T08:34:35.599Z,9.00
2023-03-02T08:35:35.698Z,8.60
2023-03-02T08:36:35.639Z,8.30
2023-03-02T08:37:35.575Z,8.50
2023-03-02T08:38:35.577Z,8.40
2023-03-02T08:39:35.546Z,8.80
2023-03-02T08:40:35.550Z,9.00
2023-03-02T08:41:35.896Z,8.90
2023-03-02T08:42:35.524Z,9.10
2023-03-02T08:43:35.535Z,8.50
2023-03-02T08:44:35.579Z,8.70
2023-03-02T08:45:35.582Z,8.70
2023-03-02T08:46:35.528Z,8.00
2023-03-02T08:47:35.452Z,8.60
2023-03-02T08:48:35.447Z,8.40
2023-03-02T08:49:35.452Z,9.10
2023-03-02T08:50:35.437Z,8.70
2023-03-02T08:51:35.609Z,8.30
2023-03-02T08:52:35.433Z,8.70
2023-03-02T08:53:35.386Z,8.00
2023-03-02T08:54:35.396Z,8.50
2023-03-02T08:55:35.360Z,8.40
2023-03-02T08:56:35.917Z,7.60
2023-03-02T08:57:35.341Z,7.90
2023-03-02T08:58:35.355Z,8.20
2023-03-02T08:59:35.314Z,8.20
2023-03-02T09:00:35.308Z,8.30
2023-03-02T09:01:35.714Z,7.70
2023-03-02T09:02:35.275Z,7.50
2023-03-02T09:03:35.294Z,7.60
2023-03-02T09:04:35.363Z,7.50
2023-03-02T09:05:35.279Z,7.10
2023-03-02T09:06:35.263Z,7.70
2023-03-02T09:07:35.256Z,6.50
2023-03-02T09:08:35.227Z,4.80
2023-03-02T09:09:35.240Z,4.80
2023-03-02T09:10:35.195Z,4.80
2023-03-02T09:11:35.435Z,5.10
2023-03-02T09:12:35.180Z,5.40
2023-03-02T09:13:35.158Z,4.50
2023-03-02T09:14:35.147Z,4.90
2023-03-02T09:15:35.143Z,4.40
2023-03-02T09:16:35.217Z,4.60
2023-03-02T09:17:35.122Z,4.70
2023-03-02T09:18:35.103Z,5.10
2023-03-02T09:19:35.109Z,4.70
2023-03-02T09:20:35.109Z,4.80
2023-03-02T09:21:35.441Z,4.80
2023-03-02T09:22:35.062Z,4.40
2023-03-02T09:23:35.081Z,4.50
2023-03-02T09:24:35.038Z,4.60
2023-03-02T09:25:35.052Z,4.40
2023-03-02T09:26:35.030Z,4.60
2023-03-02T09:27:35.047Z,4.20
2023-03-02T09:28:35.008Z,4.50
2023-03-02T09:29:34.995Z,4.40
2023-03-02T09:30:35.004Z,4.60
2023-03-02T09:31:35.508Z,4.00
2023-03-02T09:32:35.082Z,4.30
2023-03-02T09:33:34.941Z,4.70
2023-03-02T09:34:34.933Z,4.90
2023-03-02T09:35:34.967Z,4.70
2023-03-02T09:36:34.916Z,5.10
2023-03-02T09:37:34.915Z,4.70
2023-03-02T09:38:34.913Z,4.30
2023-03-02T09:39:34.909Z,4.20
2023-03-02T09:40:34.973Z,4.70
2023-03-02T09:41:35.257Z,4.60
2023-03-02T09:42:43.425Z,4.60
2023-03-02T09:43:35.840Z,4.20
2023-03-02T09:44:34.816Z,4.20
2023-03-02T09:45:34.834Z,4.40
2023-03-02T09:46:34.800Z,4.70
2023-03-02T09:47:35.969Z,4.20
2023-03-02T09:48:34.802Z,4.70
2023-03-02T09:49:35.017Z,4.50
2023-03-02T09:50:34.756Z,4.70
2023-03-02T09:51:35.022Z,4.40
2023-03-02T09:52:34.743Z,4.50
2023-03-02T09:53:34.712Z,4.10
2023-03-02T09:54:34.805Z,4.60
2023-03-02T09:55:34.789Z,5.10
2023-03-02T09:56:35.036Z,4.10
2023-03-02T09:57:34.688Z,4.60
2023-03-02T09:58:34.678Z,4.70
2023-03-02T09:59:34.651Z,4.10
2023-03-02T10:00:34.647Z,4.40
2023-03-02T10:01:34.615Z,4.10
2023-03-02T10:02:34.640Z,4.40
2023-03-02T10:03:34.675Z,4.30
2023-03-02T10:04:34.630Z,4.10
2023-03-02T10:05:34.597Z,4.80
2023-03-02T10:06:34.880Z,4.40
2023-03-02T10:07:34.553Z,4.50
2023-03-02T10:08:34.551Z,4.80
2023-03-02T10:09:34.525Z,4.90
2023-03-02T10:10:34.529Z,4.40
2023-03-02T10:11:34.551Z,4.60
2023-03-02T10:12:34.495Z,4.10
2023-03-02T10:13:34.515Z,6.30
2023-03-02T10:14:34.488Z,5.80
2023-03-02T10:15:34.467Z,5.90
2023-03-02T10:16:35.012Z,4.80
2023-03-02T10:17:34.484Z,4.60
2023-03-02T10:18:34.429Z,4.90
2023-03-02T10:19:34.424Z,4.60
2023-03-02T10:20:34.556Z,4.90
2023-03-02T10:21:34.418Z,5.10
2023-03-02T10:22:34.399Z,5.20
2023-03-02T10:23:34.380Z,5.60
2023-03-02T10:24:34.364Z,6.30
2023-03-02T10:25:34.382Z,5.40
2023-03-02T10:26:34.749Z,5.20
2023-03-02T10:27:34.397Z,4.70
2023-03-02T10:28:34.338Z,4.80
2023-03-02T10:29:34.340Z,5.50
2023-03-02T10:30:34.359Z,5.90
2023-03-02T10:31:34.294Z,5.60
2023-03-02T10:32:34.363Z,5.10
2023-03-02T10:33:34.264Z,4.50
2023-03-02T10:34:34.282Z,4.20
2023-03-02T10:35:34.253Z,4.50
2023-03-02T10:36:34.627Z,4.80
2023-03-02T10:37:34.293Z,4.20
2023-03-02T10:38:34.228Z,4.90
2023-03-02T10:39:34.201Z,4.50
2023-03-02T10:40:34.179Z,4.30
2023-03-02T10:41:34.169Z,4.70
2023-03-02T10:42:34.168Z,4.70
2023-03-02T10:43:34.183Z,5.00
2023-03-02T10:44:34.140Z,4.60
2023-03-02T10:45:34.123Z,4.50
2023-03-02T10:46:34.554Z,5.40
2023-03-02T10:47:34.108Z,5.20
2023-03-02T10:48:34.171Z,5.80
2023-03-02T10:49:34.168Z,5.90
2023-03-02T10:50:34.105Z,6.10
2023-03-02T10:51:34.063Z,6.00
2023-03-02T10:52:34.099Z,6.00
2023-03-02T10:53:34.054Z,6.00
2023-03-02T10:54:34.038Z,6.40
2023-03-02T10:55:34.026Z,6.30
2023-03-02T10:56:34.442Z,6.40
2023-03-02T10:57:33.990Z,5.60
2023-03-02T10:58:33.983Z,6.00
2023-03-02T10:59:33.999Z,6.50
2023-03-02T11:00:33.985Z,5.80
2023-03-02T11:01:33.991Z,6.30
2023-03-02T11:02:33.924Z,6.20
2023-03-02T11:03:33.914Z,6.10
2023-03-02T11:04:33.949Z,6.00
2023-03-02T11:05:33.924Z,6.20
2023-03-02T11:06:34.244Z,5.90
2023-03-02T11:07:33.868Z,5.70
2023-03-02T11:08:33.861Z,6.50
2023-03-02T11:09:33.848Z,6.10
2023-03-02T11:10:33.881Z,6.40
2023-03-02T11:11:34.430Z,5.80
2023-03-02T11:12:33.828Z,6.10
2023-03-02T11:13:33.810Z,6.00
2023-03-02T11:14:33.792Z,6.40
2023-03-02T11:15:33.975Z,6.10
2023-03-02T11:16:33.890Z,6.40
2023-03-02T11:17:33.763Z,5.80
2023-03-02T11:18:33.783Z,6.30
2023-03-02T11:19:33.778Z,5.70
2023-03-02T11:20:33.758Z,6.50
2023-03-02T11:21:34.107Z,6.70
2023-03-02T11:22:33.703Z,6.20
2023-03-02T11:23:33.688Z,6.00
2023-03-02T11:24:33.690Z,6.50
2023-03-02T11:25:33.690Z,6.40
2023-03-02T11:26:33.657Z,6.40
2023-03-02T11:27:33.655Z,6.30
2023-03-02T11:28:33.637Z,6.10
2023-03-02T11:29:33.647Z,6.20
2023-03-02T11:30:33.610Z,6.30
2023-03-02T11:31:34.082Z,6.00
2023-03-02T11:32:33.678Z,5.80
2023-03-02T11:33:33.688Z,6.10
2023-03-02T11:34:33.597Z,6.00
2023-03-02T11:35:33.582Z,6.10
2023-03-02T11:36:33.544Z,6.40
2023-03-02T11:37:33.551Z,5.80
2023-03-02T11:38:33.532Z,6.40
2023-03-02T11:39:34.256Z,5.60
2023-03-02T11:40:33.585Z,6.50
2023-03-02T11:41:33.958Z,6.00
2023-03-02T11:42:33.571Z,5.90
2023-03-02T11:43:33.586Z,6.60
2023-03-02T11:44:33.500Z,6.60
2023-03-02T11:45:33.457Z,6.20
2023-03-02T11:46:33.549Z,6.10
2023-03-02T11:47:33.487Z,5.80
2023-03-02T11:48:33.417Z,5.90
2023-03-02T11:49:33.406Z,6.10
2023-03-02T11:50:33.551Z,6.10
2023-03-02T11:51:33.814Z,5.90
2023-03-02T11:52:33.373Z,6.30
2023-03-02T11:53:33.445Z,5.90
2023-03-02T11:54:33.375Z,6.30
2023-03-02T11:55:33.356Z,5.90
2023-03-02T11:56:33.347Z,5.80
2023-03-02T11:57:33.324Z,6.30
2023-03-02T11:58:33.300Z,5.90
2023-03-02T11:59:33.286Z,5.70
2023-03-02T12:00:33.314Z,5.60
2023-03-02T12:01:33.681Z,6.10
2023-03-02T12:02:33.251Z,6.00
2023-03-02T12:03:33.260Z,5.60
2023-03-02T12:04:33.234Z,5.50
2023-03-02T12:05:33.284Z,4.90
2023-03-02T12:06:33.523Z,4.80
2023-03-02T12:07:33.197Z,4.80
2023-03-02T12:08:33.194Z,4.80
2023-03-02T12:09:33.196Z,4.70
2023-03-02T12:10:33.201Z,5.50
2023-03-02T12:11:33.174Z,5.50
2023-03-02T12:12:33.148Z,5.90
2023-03-02T12:13:33.127Z,6.10
2023-03-02T12:14:33.171Z,5.20
2023-03-02T12:15:33.102Z,5.20
2023-03-02T12:16:33.413Z,4.70
2023-03-02T12:17:33.153Z,4.90
2023-03-02T12:18:33.072Z,4.40
2023-03-02T12:19:33.101Z,4.90
2023-03-02T12:20:33.058Z,4.80
2023-03-02T12:21:33.040Z,4.90
2023-03-02T12:22:33.055Z,5.20
2023-03-02T12:23:33.022Z,5.00
2023-03-02T12:24:33.026Z,5.40
2023-03-02T12:25:33.006Z,5.20
2023-03-02T12:26:33.254Z,4.50
2023-03-02T12:27:33.032Z,4.40
2023-03-02T12:28:33.010Z,4.50
2023-03-02T12:29:32.984Z,4.70
2023-03-02T12:30:32.964Z,4.80
2023-03-02T12:31:32.958Z,4.70
2023-03-02T12:32:33.008Z,5.10
2023-03-02T12:33:32.895Z,5.00
2023-03-02T12:34:32.929Z,4.80
2023-03-02T12:35:33.082Z,4.90
2023-03-02T12:36:33.268Z,4.90
2023-03-02T12:37:32.857Z,5.10
2023-03-02T12:38:32.885Z,4.80
2023-03-02T12:39:32.855Z,4.70
2023-03-02T12:40:32.827Z,4.60
2023-03-02T12:41:32.829Z,4.90
2023-03-02T12:42:32.811Z,5.00
2023-03-02T12:43:32.804Z,4.80
2023-03-02T12:44:32.799Z,4.60
2023-03-02T12:45:32.819Z,4.80
2023-03-02T12:46:33.257Z,5.00
2023-03-02T12:47:33.097Z,4.90
2023-03-02T12:48:32.870Z,5.10
2023-03-02T12:49:32.754Z,4.90
2023-03-02T12:50:32.732Z,5.00
2023-03-02T12:51:32.855Z,5.20
2023-03-02T12:52:32.761Z,5.50
2023-03-02T12:53:32.700Z,5.50
2023-03-02T12:54:32.666Z,6.20
2023-03-02T12:55:32.702Z,6.30
2023-03-02T12:56:32.679Z,5.80
2023-03-02T12:57:32.637Z,5.90
2023-03-02T12:58:32.665Z,5.90
2023-03-02T12:59:32.615Z,6.00
2023-03-02T13:00:32.623Z,5.80
2023-03-02T13:01:32.676Z,6.10
2023-03-02T13:02:32.656Z,5.80
2023-03-02T13:03:32.660Z,6.00
2023-03-02T13:04:32.622Z,6.10
2023-03-02T13:05:32.560Z,5.90
2023-03-02T13:06:32.756Z,6.00
2023-03-02T13:07:32.559Z,6.10
2023-03-02T13:08:32.537Z,5.60
2023-03-02T13:09:32.502Z,5.70
2023-03-02T13:10:32.514Z,6.00
2023-03-02T13:11:32.477Z,6.00
2023-03-02T13:12:32.496Z,5.20
2023-03-02T13:13:32.607Z,5.90
2023-03-02T13:14:32.453Z,6.40